Grand Forks International Airport
KGFK : now visible

Airfield :











YOU CAN JOIN US ON...

 
LOGIN :

Register | Disclaimer

   EN    FR    IT 

 









Legend :    VFR   Marginal VFR   IFR   Intensive IFR   Very Intensive IFR
Visi :
Ceiling :
>= 8 km
>= 3000ft
5 to 8 km
1000 to 3000 ft
1500m to 5 km
500 to 1000 ft
800 to 1500m
200 to 500 ft
< 800m
< 200 ft
Symbols :   Thunderstorms  Fog  Heavy snow  Heavy precipitations  Wind > 20 kt






- Airport Elevation : 845 ft
- IATA code : GFK


KGFK - Grand Forks International

CURRENT METAR :
  • 171953Z 35012KT 9SM -SN BKN008 OVC027 M06/M07 A2980 RMK AO2 SLP108 P0000 T10561072 $

EXPIRED METARs :
  • 171853Z 01011KT 9SM -SN FEW008 SCT041 OVC080 M04/M06 A2983 RMK AO2 SNB50 SLP117 P0000 T10441061 $
  • 171753Z 01011KT 10SM BKN023 OVC044 M04/M06 A2982 RMK AO2 SLP114 4/009 933023 T10391056 11033 21083 53006 $

TAF KGFK
Valid from the 17 at 18:00 until the 18 at 18:00 UTC


171736Z 1718/1818 36009KT P6SM BKN017
FM180600 12006KT P6SM BKN007
FM180900 15008KT P6SM OVC004
FM181400 19015G23KT P6SM OVC004
FM181700 28025G35KT 1SM BLSN BKN012
KZMP FIR / North America



MET'MAP, your aeronautical weather chart ! - Copyright ORBIFLY December 2007 - Disclaimer

ORBIFLY MET'MAP TEAM :

Programming & Development : Alexandra Zaïnal
Concept & original design : Baudouin d'Aumeries
Assistance for programming : Marc-Olivier Méhu
Technical & hardware support : Manuel Goepfert

Contact : metmap@orbifly.com




SOURCES & CREDITS :

   NOAA       Earth
Advisory